Time;durP1;ratioP1;P1;durP2;ratioP2;P2;SDS_P1;SDS_P2;PMS_P1;PMS_P2;Temp;Humidity;BMP_temperature;BMP_pressure;BME280_temperature;BME280_humidity;BME280_pressure;Samples;Min_cycle;Max_cycle;Signal;HPM_P1;HPM_P2
2023/10/23 00:00:50;;;;;;;3.22;1.40;;;;;;;10.26;89.69;98513.78;5004191;28;20041;-80
2023/10/23 00:03:15;;;;;;;2.97;1.77;;;;;;;10.35;89.35;98506.09;4994902;28;21439;-80
2023/10/23 00:05:41;;;;;;;3.03;2.10;;;;;;;10.53;88.40;98509.16;5009578;28;20124;-80
2023/10/23 00:08:06;;;;;;;3.03;1.73;;;;;;;10.57;87.87;98508.66;5003717;28;20038;-80
2023/10/23 00:10:31;;;;;;;5.38;1.85;;;;;;;10.47;88.27;98510.19;4992278;28;20528;-80
2023/10/23 00:12:57;;;;;;;2.72;1.60;;;;;;;10.50;88.04;98517.69;5012113;28;20025;-81
2023/10/23 00:15:22;;;;;;;2.53;1.60;;;;;;;10.54;87.47;98516.13;5013014;28;20037;-80
2023/10/23 00:17:48;;;;;;;2.00;1.73;;;;;;;10.57;87.34;98517.47;4996011;28;20037;-80
2023/10/23 00:20:13;;;;;;;7.13;3.40;;;;;;;10.52;87.45;98520.91;5013421;28;20025;-80
2023/10/23 00:22:38;;;;;;;4.82;2.00;;;;;;;10.50;87.24;98524.91;5024736;28;20045;-80
2023/10/23 00:25:04;;;;;;;1.73;1.63;;;;;;;10.42;87.76;98523.50;4991022;28;20033;-80
2023/10/23 00:27:29;;;;;;;2.45;1.70;;;;;;;10.45;87.80;98527.50;4989425;28;20673;-80
2023/10/23 00:29:55;;;;;;;6.15;2.03;;;;;;;10.39;87.59;98533.88;5007846;28;20045;-80
2023/10/23 00:32:20;;;;;;;1.90;1.60;;;;;;;10.37;87.80;98526.13;4992063;28;20436;-80
2023/10/23 00:34:45;;;;;;;3.80;1.80;;;;;;;10.42;87.10;98523.50;4982380;28;20037;-80
2023/10/23 00:37:11;;;;;;;2.75;1.30;;;;;;;10.29;87.35;98533.78;5007970;28;20029;-80
2023/10/23 00:39:36;;;;;;;2.70;1.73;;;;;;;10.29;87.56;98521.25;4993140;28;20057;-80
2023/10/23 00:42:02;;;;;;;2.05;1.90;;;;;;;10.30;87.19;98535.41;5027143;28;20049;-80
2023/10/23 00:44:27;;;;;;;1.70;1.60;;;;;;;10.38;87.41;98546.41;5010818;28;20087;-80
2023/10/23 00:46:54;;;;;;;2.63;1.90;;;;;;;10.37;87.54;98550.16;5028664;28;20040;-80
2023/10/23 00:49:20;;;;;;;2.40;1.42;;;;;;;10.32;87.56;98542.09;5027004;28;20125;-80
2023/10/23 00:51:46;;;;;;;1.98;1.65;;;;;;;10.32;87.69;98552.75;5027704;28;20108;-80
2023/10/23 00:54:14;;;;;;;2.38;1.50;;;;;;;10.39;87.30;98556.03;5011534;28;20087;-80
2023/10/23 00:56:40;;;;;;;2.75;2.03;;;;;;;10.30;87.44;98562.88;4994250;28;20033;-80
2023/10/23 00:59:07;;;;;;;2.88;1.80;;;;;;;10.07;88.55;98551.69;5007821;28;20048;-80
2023/10/23 01:01:33;;;;;;;5.22;2.42;;;;;;;9.92;89.19;98554.19;5012761;28;20037;-80
2023/10/23 01:04:03;;;;;;;2.80;1.77;;;;;;;10.08;88.47;98553.28;5010177;28;20041;-80
2023/10/23 01:06:30;;;;;;;2.47;2.08;;;;;;;10.17;88.83;98554.47;4990929;28;20037;-79
2023/10/23 01:08:56;;;;;;;5.07;1.63;;;;;;;9.98;88.78;98553.19;4994287;28;20381;-80
2023/10/23 01:11:21;;;;;;;3.53;2.25;;;;;;;10.08;88.93;98543.44;5012186;28;20098;-80
2023/10/23 01:13:47;;;;;;;2.30;2.08;;;;;;;10.14;88.45;98537.13;5027118;28;20166;-80
2023/10/23 01:16:12;;;;;;;2.05;1.90;;;;;;;10.06;89.33;98555.41;5030270;28;20029;-80
2023/10/23 01:18:37;;;;;;;3.13;1.92;;;;;;;9.68;90.67;98549.16;5011903;28;20036;-79
2023/10/23 01:21:03;;;;;;;4.25;2.30;;;;;;;9.61;91.96;98539.75;5042038;28;20140;-79
2023/10/23 01:23:33;;;;;;;3.72;2.00;;;;;;;9.57;90.94;98552.75;5028495;28;20080;-79
2023/10/23 01:25:58;;;;;;;2.83;2.30;;;;;;;9.40;93.06;98561.84;5025714;28;20021;-79
2023/10/23 01:28:23;;;;;;;2.10;1.90;;;;;;;9.51;93.23;98548.44;5007058;28;20089;-80
2023/10/23 01:30:49;;;;;;;2.53;2.05;;;;;;;9.74;91.59;98550.81;5030279;28;20064;-80
2023/10/23 01:33:14;;;;;;;2.55;2.20;;;;;;;9.37;92.68;98559.72;5019384;28;20430;-79
2023/10/23 01:35:39;;;;;;;2.90;1.80;;;;;;;9.56;93.08;98564.47;4997122;28;20045;-80
2023/10/23 01:38:05;;;;;;;4.15;2.00;;;;;;;9.87;91.09;98562.97;5011631;28;20072;-80
2023/10/23 01:40:30;;;;;;;1.77;1.67;;;;;;;9.90;89.89;98558.97;5010098;28;20041;-80
2023/10/23 01:42:56;;;;;;;3.45;2.50;;;;;;;9.88;89.78;98564.56;5006156;28;20030;-80
2023/10/23 01:45:21;;;;;;;3.58;1.88;;;;;;;10.04;89.42;98569.00;5010168;28;20043;-80
2023/10/23 01:47:46;;;;;;;5.53;1.92;;;;;;;10.01;89.83;98556.16;5028713;28;20065;-80
2023/10/23 01:50:12;;;;;;;2.97;2.45;;;;;;;9.79;90.29;98556.19;4993400;28;20124;-80
2023/10/23 01:52:38;;;;;;;3.88;2.67;;;;;;;10.12;88.71;98557.91;5008259;28;20029;-80
2023/10/23 01:55:05;;;;;;;2.38;1.90;;;;;;;10.14;89.16;98568.31;5002932;28;20033;-80
2023/10/23 01:57:30;;;;;;;3.88;2.00;;;;;;;10.18;88.68;98558.75;5002656;28;20201;-80
2023/10/23 02:00:01;;;;;;;5.40;2.33;;;;;;;10.19;88.96;98563.03;5014533;28;20131;-80
2023/10/23 02:02:27;;;;;;;1.75;1.65;;;;;;;10.39;87.71;98568.56;4995501;28;20038;-80
2023/10/23 02:04:52;;;;;;;2.22;2.03;;;;;;;10.21;89.13;98558.25;5010741;28;20042;-80
2023/10/23 02:07:17;;;;;;;2.95;1.70;;;;;;;10.21;88.93;98572.41;4983091;28;20056;-80
2023/10/23 02:09:43;;;;;;;3.78;1.85;;;;;;;10.21;88.47;98571.59;5004275;28;20046;-80
2023/10/23 02:12:08;;;;;;;3.75;2.13;;;;;;;10.16;89.03;98555.53;5010911;28;20397;-79
2023/10/23 02:14:33;;;;;;;2.42;2.20;;;;;;;10.13;89.33;98562.19;5002869;28;20056;-80
2023/10/23 02:16:59;;;;;;;2.38;1.77;;;;;;;10.19;89.05;98566.50;5015124;28;20076;-80
2023/10/23 02:19:24;;;;;;;3.08;1.67;;;;;;;10.17;89.11;98573.16;5014488;28;20029;-80
2023/10/23 02:21:49;;;;;;;2.40;1.50;;;;;;;10.12;89.49;98573.91;4998984;28;20041;-80
2023/10/23 02:24:16;;;;;;;2.78;1.92;;;;;;;10.19;89.00;98577.19;4997516;28;20041;-80
2023/10/23 02:26:41;;;;;;;3.35;1.80;;;;;;;10.20;89.18;98586.78;5012160;28;20065;-79
2023/10/23 02:29:06;;;;;;;6.10;2.15;;;;;;;9.98;90.06;98577.19;5016917;28;20068;-80
2023/10/23 02:31:32;;;;;;;2.30;2.10;;;;;;;10.01;89.57;98572.16;4995856;28;20041;-79
2023/10/23 02:33:57;;;;;;;2.83;1.60;;;;;;;10.15;89.71;98583.25;5011149;28;20025;-80
2023/10/23 02:36:22;;;;;;;2.70;1.83;;;;;;;10.25;88.87;98575.34;4992431;28;20033;-80
2023/10/23 02:38:48;;;;;;;2.15;2.00;;;;;;;10.30;88.32;98581.56;4997901;28;20121;-80
2023/10/23 02:41:13;;;;;;;1.58;1.45;;;;;;;10.23;88.02;98564.94;5008114;28;20068;-80
2023/10/23 02:43:39;;;;;;;3.05;1.77;;;;;;;10.26;88.18;98582.31;5010512;28;20124;-79
2023/10/23 02:46:04;;;;;;;2.47;1.63;;;;;;;10.27;88.22;98587.38;5013764;28;20064;-80
2023/10/23 02:48:30;;;;;;;3.60;2.25;;;;;;;10.22;88.69;98590.00;4996717;28;20037;-80
2023/10/23 02:50:57;;;;;;;5.70;2.30;;;;;;;10.15;88.57;98578.75;4996724;28;20079;-80
2023/10/23 02:53:22;;;;;;;3.42;1.83;;;;;;;10.17;88.92;98589.16;5002489;28;20026;-80
2023/10/23 02:55:48;;;;;;;1.65;1.55;;;;;;;10.12;88.41;98581.09;5000181;28;20232;-80
2023/10/23 02:58:13;;;;;;;3.53;3.20;;;;;;;10.11;88.25;98590.94;5010857;28;20038;-79
2023/10/23 03:00:42;;;;;;;4.32;1.88;;;;;;;10.15;88.89;98599.28;5009491;28;21751;-80
2023/10/23 03:03:07;;;;;;;1.88;1.77;;;;;;;10.16;88.51;98603.53;5029587;28;20045;-80
2023/10/23 03:05:33;;;;;;;2.97;2.10;;;;;;;10.00;89.37;98610.56;5013873;28;20071;-80
2023/10/23 03:07:59;;;;;;;3.88;1.80;;;;;;;10.05;88.75;98597.25;5030401;28;20037;-80
2023/10/23 03:10:24;;;;;;;2.30;2.03;;;;;;;10.21;87.94;98596.41;5013813;28;20037;-80
2023/10/23 03:12:50;;;;;;;2.00;1.80;;;;;;;10.21;88.08;98611.59;5025246;28;20037;-80
2023/10/23 03:15:16;;;;;;;3.40;1.90;;;;;;;10.18;87.91;98604.91;5013946;28;20029;-80
2023/10/23 03:17:42;;;;;;;3.67;1.70;;;;;;;10.22;88.05;98611.31;5013964;28;20029;-80
2023/10/23 03:20:08;;;;;;;2.47;1.90;;;;;;;10.21;87.72;98624.94;5013265;28;20021;-80
2023/10/23 03:22:34;;;;;;;2.15;1.95;;;;;;;10.11;88.49;98624.84;5011181;28;20044;-80
2023/10/23 03:24:59;;;;;;;3.42;2.05;;;;;;;10.16;87.97;98620.34;5031376;28;20485;-80
2023/10/23 03:27:25;;;;;;;2.50;1.95;;;;;;;9.99;88.44;98611.59;4995326;28;20111;-79
2023/10/23 03:29:50;;;;;;;3.17;2.13;;;;;;;10.04;88.73;98625.00;5011411;28;20037;-80
2023/10/23 03:32:15;;;;;;;2.20;2.00;;;;;;;10.00;88.70;98621.22;5010031;28;20026;-80
2023/10/23 03:34:41;;;;;;;1.85;1.75;;;;;;;10.00;88.91;98625.75;5032586;28;20091;-79
2023/10/23 03:37:06;;;;;;;3.47;1.88;;;;;;;9.93;88.78;98633.13;4996174;28;20025;-79
2023/10/23 03:39:31;;;;;;;2.13;1.88;;;;;;;9.95;89.06;98629.16;4996073;28;20029;-80
2023/10/23 03:41:57;;;;;;;3.13;2.17;;;;;;;9.86;89.35;98635.97;4996926;28;20030;-79
2023/10/23 03:44:22;;;;;;;3.33;1.55;;;;;;;9.99;88.56;98629.44;5003216;28;20025;-80
2023/10/23 03:46:47;;;;;;;1.88;1.70;;;;;;;10.01;89.08;98627.34;5012746;28;20103;-80
2023/10/23 03:49:13;;;;;;;1.90;1.75;;;;;;;10.01;88.64;98630.81;5010383;28;20120;-80
2023/10/23 03:51:38;;;;;;;2.88;2.63;;;;;;;9.96;88.80;98635.31;4992765;28;20405;-80
2023/10/23 03:54:04;;;;;;;2.45;2.03;;;;;;;9.98;88.56;98639.31;4994349;28;20079;-79
2023/10/23 03:56:29;;;;;;;3.75;1.67;;;;;;;10.01;89.39;98646.00;4993231;28;20132;-80
2023/10/23 03:58:54;;;;;;;1.95;1.85;;;;;;;9.89;89.50;98632.81;5011900;28;20040;-80
2023/10/23 04:01:20;;;;;;;2.38;1.70;;;;;;;9.95;89.78;98633.69;5012374;28;20041;-79
2023/10/23 04:03:45;;;;;;;2.03;1.80;;;;;;;10.04;89.18;98632.19;4996502;28;20052;-80
2023/10/23 04:06:10;;;;;;;2.55;1.98;;;;;;;10.04;89.57;98621.50;4992294;28;20106;-80
2023/10/23 04:08:36;;;;;;;2.28;1.67;;;;;;;10.06;89.01;98630.88;4997346;28;20036;-79
2023/10/23 04:11:03;;;;;;;2.47;1.50;;;;;;;10.05;89.42;98623.13;5028373;28;20028;-80
2023/10/23 04:13:29;;;;;;;2.83;2.58;;;;;;;10.10;89.15;98621.31;4993058;28;20049;-80
2023/10/23 04:15:58;;;;;;;5.05;2.47;;;;;;;9.93;89.96;98628.59;4993701;28;20029;-80
2023/10/23 04:18:25;;;;;;;1.83;1.73;;;;;;;10.01;90.17;98628.16;5008413;28;20056;-80
2023/10/23 04:21:00;;;;;;;4.45;2.35;;;;;;;10.03;90.17;98625.22;5028672;28;20116;-80
2023/10/23 04:23:26;;;;;;;4.03;1.80;;;;;;;10.07;89.87;98613.03;5012767;28;20083;-80
2023/10/23 04:25:55;;;;;;;2.95;2.35;;;;;;;10.10;89.94;98623.19;4994681;28;20037;-79
2023/10/23 04:28:21;;;;;;;3.47;2.22;;;;;;;10.11;89.63;98628.28;5027951;28;20036;-80
2023/10/23 04:30:46;;;;;;;3.50;2.08;;;;;;;10.11;89.40;98617.63;5011187;28;20385;-80
2023/10/23 04:33:12;;;;;;;2.05;1.80;;;;;;;10.09;88.81;98617.03;5012251;28;20025;-80
2023/10/23 04:35:37;;;;;;;2.20;1.75;;;;;;;10.15;88.86;98620.59;4993567;28;20115;-79
2023/10/23 04:38:02;;;;;;;2.47;1.60;;;;;;;10.13;89.69;98620.88;5026704;28;20263;-80
2023/10/23 04:40:28;;;;;;;2.72;1.73;;;;;;;10.16;89.30;98628.34;4999674;28;20064;-79
2023/10/23 04:42:53;;;;;;;3.70;1.85;;;;;;;10.16;89.92;98622.19;5020276;28;20042;-80
2023/10/23 04:45:18;;;;;;;3.15;1.98;;;;;;;10.14;89.03;98621.66;5009668;28;20022;-80
2023/10/23 04:47:44;;;;;;;2.40;1.85;;;;;;;10.14;89.20;98621.66;5027247;28;20124;-80
2023/10/23 04:50:12;;;;;;;5.68;2.33;;;;;;;10.11;89.69;98633.63;5008841;28;20049;-80
2023/10/23 04:52:37;;;;;;;2.40;2.20;;;;;;;10.11;89.95;98632.84;5028781;28;20025;-80
2023/10/23 04:55:03;;;;;;;7.50;2.53;;;;;;;10.01;90.33;98638.00;5000483;28;20040;-80
2023/10/23 04:57:29;;;;;;;4.10;2.40;;;;;;;9.90;91.62;98626.41;5027374;28;20832;-79
2023/10/23 04:59:54;;;;;;;2.20;2.05;;;;;;;9.89;91.89;98638.16;5026246;28;20029;-80
2023/10/23 05:02:19;;;;;;;2.42;2.20;;;;;;;10.02;90.52;98628.97;5006210;28;20029;-80
2023/10/23 05:04:45;;;;;;;4.10;2.03;;;;;;;10.05;90.21;98629.25;5028222;28;20091;-79
2023/10/23 05:07:10;;;;;;;4.68;2.08;;;;;;;10.13;89.88;98636.88;4995984;28;20041;-80
2023/10/23 05:09:36;;;;;;;2.17;1.98;;;;;;;10.13;89.50;98625.38;5012340;28;20033;-79
2023/10/23 05:12:01;;;;;;;4.65;2.75;;;;;;;10.15;90.16;98631.28;5025734;28;20104;-79
2023/10/23 05:14:26;;;;;;;2.88;2.35;;;;;;;10.18;89.93;98636.91;5007022;28;20053;-80
2023/10/23 05:16:52;;;;;;;2.83;2.38;;;;;;;10.22;89.01;98640.66;5009823;28;20033;-79
2023/10/23 05:19:17;;;;;;;2.72;2.00;;;;;;;10.34;88.86;98643.19;5000476;28;20025;-79
2023/10/23 05:21:42;;;;;;;4.20;2.17;;;;;;;10.13;89.66;98639.53;5008142;28;20112;-80
2023/10/23 05:24:08;;;;;;;2.72;2.20;;;;;;;10.14;89.57;98632.31;4973398;28;20068;-79
2023/10/23 05:26:33;;;;;;;2.67;2.22;;;;;;;10.15;89.71;98640.09;5014167;28;20432;-80
2023/10/23 05:28:59;;;;;;;2.40;2.20;;;;;;;10.08;90.18;98627.94;5022766;28;20033;-80
2023/10/23 05:31:24;;;;;;;2.35;2.15;;;;;;;10.07;90.06;98631.69;4988350;28;20053;-79
2023/10/23 05:33:50;;;;;;;2.90;2.70;;;;;;;10.07;90.30;98632.47;5030424;28;20646;-79
2023/10/23 05:36:15;;;;;;;3.75;2.83;;;;;;;10.26;89.07;98646.31;4996297;28;20464;-80
2023/10/23 05:38:40;;;;;;;2.95;2.35;;;;;;;10.05;89.86;98649.78;5029759;28;20029;-80
2023/10/23 05:41:07;;;;;;;5.35;3.10;;;;;;;10.08;90.20;98659.94;5007555;28;20109;-79
2023/10/23 05:43:33;;;;;;;3.10;2.42;;;;;;;10.06;89.95;98654.88;4994008;28;20051;-80
2023/10/23 05:46:02;;;;;;;4.30;2.63;;;;;;;10.04;90.03;98654.31;5013781;28;20037;-80
2023/10/23 05:48:27;;;;;;;2.30;2.10;;;;;;;10.00;90.28;98658.56;5031694;28;20079;-79
2023/10/23 05:50:57;;;;;;;5.30;2.70;;;;;;;10.16;89.92;98662.19;5012341;28;20438;-79
2023/10/23 05:53:23;;;;;;;4.80;2.55;;;;;;;10.13;90.60;98671.53;5023495;28;20040;-79
2023/10/23 05:55:48;;;;;;;5.18;2.65;;;;;;;10.22;89.52;98659.34;5031876;28;20163;-80
2023/10/23 05:58:13;;;;;;;5.63;2.88;;;;;;;10.30;89.47;98664.25;5020941;28;20087;-80
2023/10/23 06:00:39;;;;;;;5.53;3.35;;;;;;;10.18;90.02;98679.56;5011599;28;20029;-79
2023/10/23 06:03:04;;;;;;;3.13;2.78;;;;;;;10.19;89.83;98667.84;5014264;28;20029;-80
2023/10/23 06:05:29;;;;;;;5.15;3.20;;;;;;;10.36;89.69;98676.56;4996463;28;20098;-79
2023/10/23 06:07:55;;;;;;;4.20;2.92;;;;;;;10.22;90.21;98669.22;5032785;28;20083;-80
2023/10/23 06:10:20;;;;;;;4.63;3.15;;;;;;;10.03;90.70;98682.03;5027306;28;20048;-80
2023/10/23 06:12:46;;;;;;;3.78;3.22;;;;;;;10.02;91.02;98685.75;5010484;28;20037;-79
2023/10/23 06:15:11;;;;;;;4.07;3.03;;;;;;;10.04;90.91;98681.00;5028760;28;20456;-80
2023/10/23 06:17:36;;;;;;;5.28;3.60;;;;;;;10.05;90.95;98682.59;4992053;28;20025;-79
2023/10/23 06:20:03;;;;;;;3.67;2.88;;;;;;;10.05;91.51;98693.25;4994312;28;20056;-80
2023/10/23 06:22:28;;;;;;;4.43;3.00;;;;;;;10.10;90.95;98696.00;5027189;28;20461;-80
2023/10/23 06:24:53;;;;;;;4.25;3.13;;;;;;;10.06;90.79;98688.72;5010490;28;20029;-80
2023/10/23 06:27:19;;;;;;;5.85;2.72;;;;;;;10.12;90.88;98696.56;5011878;28;20034;-79
2023/10/23 06:29:44;;;;;;;3.78;2.60;;;;;;;10.09;91.22;98683.69;5030383;28;20433;-80
2023/10/23 06:32:11;;;;;;;3.13;2.40;;;;;;;10.04;90.98;98683.66;4995985;28;20064;-79
2023/10/23 06:34:36;;;;;;;4.03;3.20;;;;;;;10.05;90.89;98679.91;4992143;28;20432;-79
2023/10/23 06:37:01;;;;;;;2.70;2.50;;;;;;;10.10;91.31;98685.31;5029410;28;20025;-79
2023/10/23 06:39:27;;;;;;;4.07;2.60;;;;;;;10.10;91.00;98674.66;4995997;28;20079;-79
2023/10/23 06:41:52;;;;;;;4.10;3.20;;;;;;;10.11;91.30;98691.50;5009651;28;20038;-79
2023/10/23 06:44:19;;;;;;;6.47;2.38;;;;;;;10.05;91.13;98685.25;4997424;28;20061;-79
2023/10/23 06:46:44;;;;;;;5.90;2.35;;;;;;;10.08;90.92;98681.28;5015365;28;20033;-79
2023/10/23 06:49:10;;;;;;;2.80;2.60;;;;;;;10.17;91.07;98685.97;5029658;28;20021;-79
2023/10/23 06:51:36;;;;;;;4.68;2.97;;;;;;;10.16;91.25;98681.69;5030531;28;20029;-80
2023/10/23 06:54:03;;;;;;;3.35;2.53;;;;;;;10.22;91.08;98679.91;5010572;28;20033;-79
2023/10/23 06:56:29;;;;;;;3.67;2.75;;;;;;;10.23;91.15;98676.97;5028508;28;20025;-80
2023/10/23 06:58:54;;;;;;;3.17;2.75;;;;;;;10.25;91.31;98682.84;5011958;28;20040;-80
2023/10/23 07:01:19;;;;;;;4.03;2.72;;;;;;;10.18;91.47;98670.75;5015377;28;20029;-79
2023/10/23 07:03:45;;;;;;;3.97;2.60;;;;;;;10.24;91.57;98677.78;5011712;28;20392;-79
2023/10/23 07:06:10;;;;;;;3.40;3.10;;;;;;;10.09;91.17;98650.91;5030017;28;20486;-79
2023/10/23 07:08:38;;;;;;;6.80;2.80;;;;;;;10.23;91.40;98684.16;5012094;28;20041;-79
2023/10/23 07:11:11;;;;;;;4.82;3.00;;;;;;;10.29;91.74;98678.63;4994354;28;20401;-80
2023/10/23 07:13:37;;;;;;;3.95;3.40;;;;;;;10.29;91.60;98688.47;5013921;28;20536;-79
2023/10/23 07:16:03;;;;;;;7.80;4.00;;;;;;;10.29;91.39;98677.81;4978375;28;20036;-79
2023/10/23 07:18:28;;;;;;;12.77;3.67;;;;;;;10.32;91.04;98677.31;5018279;28;20048;-79
2023/10/23 07:20:55;;;;;;;3.90;3.45;;;;;;;10.29;91.20;98672.47;5012149;28;20025;-79
2023/10/23 07:23:22;;;;;;;8.50;3.00;;;;;;;10.27;91.52;98669.25;4982154;28;20053;-79
2023/10/23 07:25:48;;;;;;;3.28;2.92;;;;;;;10.34;91.59;98692.03;5011673;28;20037;-79
2023/10/23 07:28:13;;;;;;;4.53;3.83;;;;;;;10.13;92.90;98684.06;5011049;28;20060;-80
2023/10/23 07:30:38;;;;;;;8.70;4.40;;;;;;;10.09;94.57;98706.91;5028490;28;20037;-79
2023/10/23 07:33:04;;;;;;;4.00;3.20;;;;;;;10.15;93.34;98690.75;5010009;28;20026;-79
2023/10/23 07:35:29;;;;;;;5.82;4.00;;;;;;;10.27;92.07;98691.41;5011450;28;20033;-80
2023/10/23 07:37:54;;;;;;;8.68;4.60;;;;;;;10.39;92.15;98696.63;5031584;28;20436;-80
2023/10/23 07:40:20;;;;;;;6.13;3.75;;;;;;;10.35;91.87;98695.50;5027607;28;20037;-80
2023/10/23 07:42:45;;;;;;;6.25;3.40;;;;;;;10.37;91.50;98686.22;5030086;28;20064;-80
2023/10/23 07:45:10;;;;;;;3.53;3.22;;;;;;;10.47;91.62;98688.16;4994105;28;20044;-80
2023/10/23 07:47:36;;;;;;;6.57;4.05;;;;;;;10.54;91.25;98697.59;5012943;28;20084;-80
2023/10/23 07:50:04;;;;;;;6.68;4.10;;;;;;;10.52;91.57;98689.03;5029857;28;20029;-80
2023/10/23 07:52:29;;;;;;;19.73;13.18;;;;;;;10.38;93.77;98700.31;5030153;28;20033;-79
2023/10/23 07:54:54;;;;;;;11.15;5.68;;;;;;;10.24;96.26;98701.78;5025483;28;20044;-79
2023/10/23 07:57:20;;;;;;;4.43;4.03;;;;;;;10.15;96.81;98689.94;5024091;28;20040;-79
2023/10/23 07:59:45;;;;;;;5.07;4.13;;;;;;;10.39;92.56;98688.63;4996288;28;20072;-80
2023/10/23 08:02:10;;;;;;;5.38;3.92;;;;;;;10.52;91.41;98685.53;4997350;28;20064;-80
2023/10/23 08:04:36;;;;;;;6.03;5.05;;;;;;;10.40;92.86;98685.69;5031109;28;20092;-80
2023/10/23 08:07:01;;;;;;;5.88;3.95;;;;;;;10.37;92.05;98686.22;5032073;28;20061;-80
2023/10/23 08:09:27;;;;;;;4.93;4.50;;;;;;;10.50;91.22;98695.66;5010305;28;20072;-80
2023/10/23 08:11:53;;;;;;;5.18;4.13;;;;;;;10.56;91.45;98697.31;5027222;28;20087;-80
2023/10/23 08:14:19;;;;;;;6.50;4.05;;;;;;;10.37;93.50;98699.53;4977823;28;20025;-80
2023/10/23 08:16:53;;;;;;;5.47;4.28;;;;;;;10.44;91.85;98683.34;5100865;27;20407;-80
2023/10/23 08:19:20;;;;;;;5.43;3.75;;;;;;;10.44;91.63;98678.78;5079870;28;20043;-80
2023/10/23 08:21:45;;;;;;;5.30;3.83;;;;;;;10.61;90.55;98686.72;5099437;28;20405;-80
2023/10/23 08:24:10;;;;;;;4.47;3.97;;;;;;;10.39;93.05;98688.63;5082433;28;20035;-80
2023/10/23 08:26:36;;;;;;;4.32;3.67;;;;;;;10.45;91.56;98679.59;5099799;28;20501;-80
2023/10/23 08:29:02;;;;;;;6.10;3.90;;;;;;;10.55;91.70;98691.16;5089051;28;20487;-80
2023/10/23 08:31:27;;;;;;;10.20;4.68;;;;;;;10.41;93.72;98703.31;5103598;28;20027;-80
2023/10/23 08:33:53;;;;;;;7.07;3.90;;;;;;;10.35;95.27;98695.50;5109166;28;20540;-80
2023/10/23 08:36:18;;;;;;;7.40;3.30;;;;;;;10.44;91.83;98689.47;5068328;28;20522;-80
2023/10/23 08:38:43;;;;;;;4.10;3.38;;;;;;;10.54;92.33;98699.44;5103858;28;20430;-80
2023/10/23 08:41:10;;;;;;;3.95;2.92;;;;;;;10.76;90.72;98702.06;5102374;28;20157;-80
2023/10/23 08:43:36;;;;;;;4.72;3.35;;;;;;;10.59;94.28;98704.03;5103484;28;20070;-79
2023/10/23 08:46:01;;;;;;;3.38;3.08;;;;;;;10.73;92.14;98699.88;5107885;27;20453;-80
2023/10/23 08:48:27;;;;;;;4.97;2.75;;;;;;;10.86;91.21;98694.13;5103993;28;20081;-80
2023/10/23 08:50:56;;;;;;;4.75;3.00;;;;;;;10.75;92.49;98695.09;5077791;28;20059;-80
2023/10/23 08:53:28;;;;;;;7.00;3.15;;;;;;;10.69;92.76;98685.44;5100379;28;20027;-80
2023/10/23 08:55:54;;;;;;;5.13;3.13;;;;;;;10.77;93.94;98709.00;5100172;28;20028;-80
2023/10/23 08:58:21;;;;;;;3.88;3.17;;;;;;;10.97;91.34;98706.50;5094655;28;20500;-80
2023/10/23 09:00:47;;;;;;;2.97;2.67;;;;;;;11.11;90.59;98699.69;5099022;28;20114;-80
2023/10/23 09:03:14;;;;;;;6.00;4.05;;;;;;;10.91;93.11;98688.84;5099839;28;20567;-81
2023/10/23 09:05:39;;;;;;;3.42;3.13;;;;;;;11.01;93.20;98695.06;5080936;28;20038;-80
2023/10/23 09:08:06;;;;;;;6.05;3.92;;;;;;;11.08;90.87;98687.66;5082690;28;20040;-80
2023/10/23 09:10:31;;;;;;;5.97;3.47;;;;;;;11.06;91.78;98686.28;5095035;28;20035;-80
2023/10/23 09:13:00;;;;;;;8.18;4.63;;;;;;;11.11;91.66;98689.81;5103411;28;20471;-80
2023/10/23 09:15:25;;;;;;;3.28;2.97;;;;;;;11.13;91.20;98684.22;5093916;28;20472;-81
2023/10/23 09:17:51;;;;;;;4.85;3.13;;;;;;;11.06;91.50;98687.09;5097274;28;20074;-80
2023/10/23 09:20:19;;;;;;;2.88;2.60;;;;;;;11.21;90.51;98670.38;5096330;28;20047;-80
2023/10/23 09:22:48;;;;;;;3.80;3.10;;;;;;;11.10;91.53;98663.34;5097481;28;20395;-80
2023/10/23 09:25:14;;;;;;;3.40;3.10;;;;;;;11.20;90.36;98671.44;5097855;28;20489;-80
2023/10/23 09:27:40;;;;;;;5.00;3.20;;;;;;;11.16;90.31;98662.34;5087115;28;20445;-80
2023/10/23 09:30:07;;;;;;;6.00;3.78;;;;;;;10.91;93.04;98670.16;5085907;28;20029;-80
2023/10/23 09:32:32;;;;;;;3.95;3.53;;;;;;;11.21;90.48;98676.53;5087245;28;20024;-80
2023/10/23 09:34:57;;;;;;;4.00;3.03;;;;;;;11.20;90.30;98676.78;5083270;28;20026;-81
2023/10/23 09:37:24;;;;;;;5.75;4.05;;;;;;;11.11;90.98;98675.66;5074878;28;20037;-80
2023/10/23 09:39:50;;;;;;;6.18;4.38;;;;;;;10.83;93.09;98662.63;5071468;28;20028;-80
2023/10/23 09:42:18;;;;;;;6.40;3.58;;;;;;;11.17;91.13;98669.28;5080319;28;20102;-80
2023/10/23 09:44:45;;;;;;;4.57;3.67;;;;;;;11.09;91.77;98667.91;5090191;28;20066;-80
2023/10/23 09:47:12;;;;;;;5.70;4.00;;;;;;;11.29;90.58;98662.69;5081755;28;20659;-80
2023/10/23 09:49:41;;;;;;;6.78;3.65;;;;;;;11.55;89.95;98671.69;5073578;28;20074;-80
2023/10/23 09:52:09;;;;;;;4.40;4.00;;;;;;;11.42;90.16;98666.78;5072925;28;20028;-80
2023/10/23 09:54:38;;;;;;;5.18;3.47;;;;;;;11.43;91.19;98670.25;5071921;28;20070;-80
2023/10/23 09:57:07;;;;;;;5.38;3.40;;;;;;;11.43;91.90;98657.69;5083399;28;20036;-80
2023/10/23 09:59:42;;;;;;;4.82;2.70;;;;;;;11.55;90.83;98663.66;5083103;28;20070;-79
2023/10/23 10:02:09;;;;;;;4.10;2.67;;;;;;;11.58;91.06;98659.66;5089722;28;20058;-80
2023/10/23 10:05:01;;;;;;;5.95;3.20;;;;;;;11.73;91.65;98667.81;5091658;28;20027;-80
2023/10/23 10:07:31;;;;;;;7.43;3.28;;;;;;;11.86;91.15;98665.44;5080921;28;20032;-80
2023/10/23 10:09:58;;;;;;;3.72;2.38;;;;;;;11.90;91.17;98669.19;5093451;28;20031;-80
2023/10/23 10:12:25;;;;;;;4.80;2.55;;;;;;;12.10;89.85;98670.38;5087276;28;20074;-80
2023/10/23 10:14:51;;;;;;;4.13;2.75;;;;;;;11.97;89.96;98669.75;5074493;28;20036;-80
2023/10/23 10:17:19;;;;;;;4.60;3.10;;;;;;;12.00;89.77;98668.44;5080284;28;20033;-80
2023/10/23 10:19:45;;;;;;;7.95;2.95;;;;;;;11.94;89.45;98670.31;5075612;28;20107;-80
2023/10/23 10:22:26;;;;;;;3.35;2.92;;;;;;;11.87;89.88;98663.56;5079914;28;20558;-80
2023/10/23 10:24:52;;;;;;;2.53;2.33;;;;;;;12.08;88.63;98664.47;5082370;28;20073;-80
2023/10/23 10:27:18;;;;;;;4.18;2.90;;;;;;;11.88;89.04;98657.97;5066361;28;20528;-80
2023/10/23 10:29:43;;;;;;;2.83;2.38;;;;;;;11.96;88.69;98644.09;5074493;28;20032;-81
2023/10/23 10:32:10;;;;;;;4.72;2.53;;;;;;;12.18;88.82;98643.91;5081773;28;20050;-81
2023/10/23 10:34:37;;;;;;;2.60;2.40;;;;;;;12.22;88.07;98650.31;5091523;28;20032;-81
2023/10/23 10:37:05;;;;;;;6.35;2.78;;;;;;;11.95;88.06;98650.50;5061938;28;20048;-81
2023/10/23 10:39:46;;;;;;;2.90;2.38;;;;;;;12.11;88.27;98651.38;5082950;28;20502;-81
2023/10/23 10:42:16;;;;;;;4.15;2.50;;;;;;;12.07;88.03;98631.56;5076108;28;20027;-81
2023/10/23 10:44:55;;;;;;;3.20;2.35;;;;;;;11.91;87.88;98641.41;5074613;28;20084;-80
2023/10/23 10:47:21;;;;;;;2.08;1.85;;;;;;;12.19;88.49;98642.03;5079406;28;20546;-81
2023/10/23 10:49:48;;;;;;;4.63;2.30;;;;;;;11.88;88.18;98646.47;5084258;28;20539;-80
2023/10/23 10:52:30;;;;;;;4.88;2.40;;;;;;;12.09;88.35;98633.97;5081178;28;21868;-80
2023/10/23 10:54:55;;;;;;;5.47;2.60;;;;;;;11.91;86.94;98635.25;5085700;28;20030;-80
2023/10/23 10:57:21;;;;;;;6.25;2.38;;;;;;;12.01;88.01;98638.75;5081244;28;20032;-80
2023/10/23 10:59:46;;;;;;;2.85;2.63;;;;;;;12.31;87.44;98632.69;5077400;28;20051;-81
2023/10/23 11:02:12;;;;;;;5.63;2.00;;;;;;;12.38;87.34;98627.91;5078976;28;20036;-81
2023/10/23 11:04:37;;;;;;;4.53;2.97;;;;;;;12.19;87.22;98624.09;5068679;28;20064;-81
2023/10/23 11:07:03;;;;;;;4.32;1.98;;;;;;;12.54;87.06;98634.06;5067911;28;20041;-81
2023/10/23 11:09:29;;;;;;;2.33;2.13;;;;;;;12.38;87.15;98627.09;5070441;28;20040;-81
2023/10/23 11:11:59;;;;;;;4.50;1.75;;;;;;;12.34;86.04;98623.34;5080292;28;20035;-81
2023/10/23 11:14:24;;;;;;;1.77;1.67;;;;;;;12.46;86.05;98619.34;5077918;28;20024;-81
2023/10/23 11:16:51;;;;;;;2.97;1.88;;;;;;;12.28;85.46;98624.38;5081210;28;20379;-81
2023/10/23 11:19:16;;;;;;;3.05;1.92;;;;;;;11.93;84.76;98612.50;5075301;28;20121;-80
2023/10/23 11:21:41;;;;;;;1.98;1.80;;;;;;;12.13;86.91;98616.31;5073027;28;20064;-81
2023/10/23 11:24:07;;;;;;;2.00;1.65;;;;;;;12.29;86.54;98618.78;5054882;28;20483;-81
2023/10/23 11:26:32;;;;;;;4.72;2.05;;;;;;;12.50;86.38;98611.56;5078802;28;20411;-81
2023/10/23 11:28:58;;;;;;;2.60;1.63;;;;;;;12.67;86.19;98618.28;5065700;28;20039;-80